createdAt,value
2022-09-24T00:00:17.000Z,9.19
2022-09-24T00:01:20.000Z,9.15
2022-09-24T00:02:17.000Z,9.17
2022-09-24T00:03:20.000Z,9.17
2022-09-24T00:04:17.000Z,9.14
2022-09-24T00:05:17.000Z,9.11
2022-09-24T00:06:21.000Z,9.10
2022-09-24T00:07:17.000Z,9.10
2022-09-24T00:08:18.000Z,9.10
2022-09-24T00:09:21.000Z,9.12
2022-09-24T00:10:17.000Z,9.10
2022-09-24T00:11:21.000Z,9.09
2022-09-24T00:12:17.000Z,9.08
2022-09-24T00:13:17.000Z,9.06
2022-09-24T00:14:18.000Z,9.05
2022-09-24T00:15:17.000Z,9.05
2022-09-24T00:16:20.000Z,9.10
2022-09-24T00:17:17.000Z,9.08
2022-09-24T00:18:17.000Z,9.05
2022-09-24T00:19:17.000Z,9.11
2022-09-24T00:20:17.000Z,9.08
2022-09-24T00:21:33.000Z,9.15
2022-09-24T00:22:17.000Z,9.14
2022-09-24T00:23:17.000Z,9.10
2022-09-24T00:24:22.000Z,9.08
2022-09-24T00:25:22.000Z,9.08
2022-09-24T00:26:23.000Z,9.08
2022-09-24T00:27:17.000Z,9.13
2022-09-24T00:28:17.000Z,9.13
2022-09-24T00:29:22.000Z,9.06
2022-09-24T00:30:17.000Z,9.06
2022-09-24T00:31:17.000Z,9.09
2022-09-24T00:32:17.000Z,9.07
2022-09-24T00:33:17.000Z,9.05
2022-09-24T00:34:18.000Z,9.01
2022-09-24T00:35:17.000Z,9.12
2022-09-24T00:36:19.000Z,9.08
2022-09-24T00:37:19.000Z,9.06
2022-09-24T00:38:17.000Z,9.10
2022-09-24T00:39:17.000Z,9.11
2022-09-24T00:40:17.000Z,9.11
2022-09-24T00:41:20.000Z,9.14
2022-09-24T00:42:18.000Z,9.19
2022-09-24T00:43:35.000Z,9.14
2022-09-24T00:44:27.000Z,9.14
2022-09-24T00:45:17.000Z,9.12
2022-09-24T00:46:27.000Z,9.09
2022-09-24T00:47:27.000Z,9.09
2022-09-24T00:48:17.000Z,9.10
2022-09-24T00:49:18.000Z,9.14
2022-09-24T00:50:34.000Z,9.12
2022-09-24T00:51:19.000Z,9.11
2022-09-24T00:52:17.000Z,9.09
2022-09-24T00:53:21.000Z,9.05
2022-09-24T00:54:21.000Z,9.06
2022-09-24T00:55:20.000Z,9.05
2022-09-24T00:56:18.000Z,9.04
2022-09-24T00:57:17.000Z,9.04
2022-09-24T00:58:17.000Z,9.03
2022-09-24T00:59:20.000Z,9.03
2022-09-24T01:00:18.000Z,9.00
2022-09-24T01:01:20.000Z,9.04
2022-09-24T01:02:17.000Z,9.01
2022-09-24T01:03:22.000Z,9.01
2022-09-24T01:04:19.000Z,9.04
2022-09-24T01:05:17.000Z,9.02
2022-09-24T01:06:17.000Z,9.04
2022-09-24T01:07:17.000Z,9.05
2022-09-24T01:08:18.000Z,9.05
2022-09-24T01:09:18.000Z,9.11
2022-09-24T01:10:52.000Z,9.14
2022-09-24T01:11:34.000Z,9.06
2022-09-24T01:12:35.000Z,9.03
2022-09-24T01:13:30.000Z,9.08
2022-09-24T01:14:27.000Z,9.06
2022-09-24T01:15:27.000Z,9.06
2022-09-24T01:16:30.000Z,9.04
2022-09-24T01:17:27.000Z,9.03
2022-09-24T01:18:34.000Z,8.99
2022-09-24T01:19:37.000Z,8.99
2022-09-24T01:20:27.000Z,9.06
2022-09-24T01:21:31.000Z,9.03
2022-09-24T01:22:40.000Z,9.01
2022-09-24T01:23:41.000Z,9.00
2022-09-24T01:24:33.000Z,8.98
2022-09-24T01:25:30.000Z,8.99
2022-09-24T01:26:41.000Z,8.97
2022-09-24T01:27:24.000Z,9.07
2022-09-24T01:28:40.000Z,9.03
2022-09-24T01:29:42.000Z,8.99
2022-09-24T01:30:17.000Z,8.99
2022-09-24T01:31:54.000Z,8.96
2022-09-24T01:32:29.000Z,8.95
2022-09-24T01:33:23.000Z,8.96
2022-09-24T01:34:24.000Z,8.95
2022-09-24T01:35:26.000Z,8.97
2022-09-24T01:36:20.000Z,8.96
2022-09-24T01:37:21.000Z,8.95
2022-09-24T01:38:26.000Z,8.97
2022-09-24T01:39:19.000Z,8.94
2022-09-24T01:40:20.000Z,9.00
2022-09-24T01:41:19.000Z,8.97
2022-09-24T01:42:20.000Z,8.99
2022-09-24T01:43:22.000Z,8.95
2022-09-24T01:44:18.000Z,8.95
2022-09-24T01:45:19.000Z,8.90
2022-09-24T01:46:19.000Z,8.91
2022-09-24T01:47:25.000Z,8.89
2022-09-24T01:48:20.000Z,8.92
2022-09-24T01:49:17.000Z,8.91
2022-09-24T01:50:18.000Z,8.96
2022-09-24T01:51:23.000Z,8.89
2022-09-24T01:52:24.000Z,8.92
2022-09-24T01:53:24.000Z,8.94
2022-09-24T01:54:28.000Z,8.88
2022-09-24T01:55:22.000Z,8.90
2022-09-24T01:56:25.000Z,8.88
2022-09-24T01:57:27.000Z,8.88
2022-09-24T01:58:26.000Z,8.89
2022-09-24T01:59:27.000Z,8.91
2022-09-24T02:00:20.000Z,8.86
2022-09-24T02:01:25.000Z,8.89
2022-09-24T02:02:27.000Z,8.90
2022-09-24T02:03:24.000Z,8.89
2022-09-24T02:04:19.000Z,8.93
2022-09-24T02:05:27.000Z,8.92
2022-09-24T02:06:28.000Z,8.95
2022-09-24T02:07:26.000Z,8.95
2022-09-24T02:08:21.000Z,8.93
2022-09-24T02:09:41.000Z,8.92
2022-09-24T02:10:19.000Z,8.94
2022-09-24T02:11:20.000Z,8.90
2022-09-24T02:12:26.000Z,8.93
2022-09-24T02:13:20.000Z,9.01
2022-09-24T02:14:18.000Z,9.03
2022-09-24T02:15:25.000Z,8.97
2022-09-24T02:16:22.000Z,8.94
2022-09-24T02:17:17.000Z,8.93
2022-09-24T02:18:21.000Z,8.90
2022-09-24T02:19:23.000Z,8.87
2022-09-24T02:20:21.000Z,8.87
2022-09-24T02:21:20.000Z,8.86
2022-09-24T02:22:17.000Z,8.85
2022-09-24T02:23:18.000Z,8.84
2022-09-24T02:24:28.000Z,8.91
2022-09-24T02:25:23.000Z,8.88
2022-09-24T02:26:17.000Z,8.89
2022-09-24T02:27:18.000Z,8.92
2022-09-24T02:28:18.000Z,8.87
2022-09-24T02:29:17.000Z,8.91
2022-09-24T02:30:17.000Z,8.91
2022-09-24T02:31:23.000Z,8.90
2022-09-24T02:32:19.000Z,8.89
2022-09-24T02:33:35.000Z,8.91
2022-09-24T02:34:30.000Z,8.89
2022-09-24T02:35:17.000Z,8.92
2022-09-24T02:36:18.000Z,8.88
2022-09-24T02:37:22.000Z,8.84
2022-09-24T02:38:17.000Z,8.85
2022-09-24T02:39:18.000Z,8.85
2022-09-24T02:40:17.000Z,8.89
2022-09-24T02:41:19.000Z,8.87
2022-09-24T02:42:18.000Z,8.89
2022-09-24T02:43:17.000Z,8.87
2022-09-24T02:44:19.000Z,8.83
2022-09-24T02:45:17.000Z,8.81
2022-09-24T02:46:18.000Z,8.84
2022-09-24T02:47:17.000Z,8.90
2022-09-24T02:48:17.000Z,8.90
2022-09-24T02:49:17.000Z,8.85
2022-09-24T02:50:17.000Z,8.91
2022-09-24T02:51:17.000Z,8.87
2022-09-24T02:52:17.000Z,8.82
2022-09-24T02:53:18.000Z,8.84
2022-09-24T02:54:17.000Z,8.82
2022-09-24T02:55:17.000Z,8.80
2022-09-24T02:56:17.000Z,8.80
2022-09-24T02:57:18.000Z,8.78
2022-09-24T02:58:17.000Z,8.79
2022-09-24T02:59:18.000Z,8.84
2022-09-24T03:00:20.000Z,8.82
2022-09-24T03:01:18.000Z,8.77
2022-09-24T03:02:17.000Z,8.81
2022-09-24T03:03:17.000Z,8.75
2022-09-24T03:04:17.000Z,8.85
2022-09-24T03:05:17.000Z,8.77
2022-09-24T03:06:17.000Z,8.79
2022-09-24T03:07:17.000Z,8.73
2022-09-24T03:08:18.000Z,8.77
2022-09-24T03:09:17.000Z,8.82
2022-09-24T03:10:17.000Z,8.84
2022-09-24T03:11:18.000Z,8.78
2022-09-24T03:12:17.000Z,8.82
2022-09-24T03:13:17.000Z,8.84
2022-09-24T03:14:17.000Z,8.81
2022-09-24T03:15:17.000Z,8.84
2022-09-24T03:16:17.000Z,8.84
2022-09-24T03:17:17.000Z,8.82
2022-09-24T03:18:17.000Z,8.78
2022-09-24T03:19:17.000Z,8.80
2022-09-24T03:20:17.000Z,8.76
2022-09-24T03:21:19.000Z,8.81
2022-09-24T03:22:17.000Z,8.82
2022-09-24T03:23:17.000Z,8.82
2022-09-24T03:24:17.000Z,8.83
2022-09-24T03:25:20.000Z,8.79
2022-09-24T03:26:17.000Z,8.79
2022-09-24T03:27:17.000Z,8.82
2022-09-24T03:28:17.000Z,8.78
2022-09-24T03:29:31.000Z,8.82
2022-09-24T03:30:22.000Z,8.85
2022-09-24T03:31:17.000Z,8.82
2022-09-24T03:32:17.000Z,8.78
2022-09-24T03:33:17.000Z,8.79
2022-09-24T03:34:17.000Z,8.70
2022-09-24T03:35:17.000Z,8.73
2022-09-24T03:36:21.000Z,8.65
2022-09-24T03:37:17.000Z,8.63
2022-09-24T03:38:17.000Z,8.69
2022-09-24T03:39:16.000Z,8.67
2022-09-24T03:40:17.000Z,8.65
2022-09-24T03:41:17.000Z,8.64
2022-09-24T03:42:17.000Z,8.63
2022-09-24T03:43:17.000Z,8.60
2022-09-24T03:44:17.000Z,8.63
2022-09-24T03:45:17.000Z,8.63
2022-09-24T03:46:17.000Z,8.65
2022-09-24T03:47:16.000Z,8.63
2022-09-24T03:48:19.000Z,8.63
2022-09-24T03:49:16.000Z,8.63
2022-09-24T03:50:16.000Z,8.59
2022-09-24T03:51:17.000Z,8.59
2022-09-24T03:52:17.000Z,8.58
2022-09-24T03:53:18.000Z,8.58
2022-09-24T03:54:16.000Z,8.54
2022-09-24T03:55:16.000Z,8.58
2022-09-24T03:56:17.000Z,8.58
2022-09-24T03:57:16.000Z,8.57
2022-09-24T03:58:16.000Z,8.57
2022-09-24T03:59:16.000Z,8.56
2022-09-24T04:00:17.000Z,8.54
2022-09-24T04:01:18.000Z,8.58
2022-09-24T04:02:17.000Z,8.59
2022-09-24T04:03:17.000Z,8.63
2022-09-24T04:04:16.000Z,8.63
2022-09-24T04:05:17.000Z,8.62
2022-09-24T04:06:16.000Z,8.66
2022-09-24T04:07:16.000Z,8.69
2022-09-24T04:08:19.000Z,8.67
2022-09-24T04:09:16.000Z,8.69
2022-09-24T04:10:16.000Z,8.70
2022-09-24T04:11:16.000Z,8.71
2022-09-24T04:12:16.000Z,8.68
2022-09-24T04:13:17.000Z,8.71
2022-09-24T04:14:17.000Z,8.72
2022-09-24T04:15:18.000Z,8.69
2022-09-24T04:16:17.000Z,8.69
2022-09-24T04:17:16.000Z,8.71
2022-09-24T04:18:17.000Z,8.71
2022-09-24T04:19:17.000Z,8.68
2022-09-24T04:20:21.000Z,8.70
2022-09-24T04:21:16.000Z,8.66
2022-09-24T04:22:17.000Z,8.66
2022-09-24T04:23:16.000Z,8.67
2022-09-24T04:24:16.000Z,8.67
2022-09-24T04:25:18.000Z,8.69
2022-09-24T04:26:17.000Z,8.70
2022-09-24T04:27:16.000Z,8.72
2022-09-24T04:28:16.000Z,8.72
2022-09-24T04:29:16.000Z,8.73
2022-09-24T04:30:16.000Z,8.70
2022-09-24T04:31:18.000Z,8.69
2022-09-24T04:32:16.000Z,8.63
2022-09-24T04:33:16.000Z,8.65
2022-09-24T04:34:16.000Z,8.63
2022-09-24T04:35:19.000Z,8.62
2022-09-24T04:36:17.000Z,8.63
2022-09-24T04:37:16.000Z,8.67
2022-09-24T04:38:19.000Z,8.64
2022-09-24T04:39:16.000Z,8.64
2022-09-24T04:40:17.000Z,8.70
2022-09-24T04:41:16.000Z,8.70
2022-09-24T04:42:17.000Z,8.69
2022-09-24T04:43:17.000Z,8.66
2022-09-24T04:44:16.000Z,8.66
2022-09-24T04:45:19.000Z,8.65
2022-09-24T04:46:17.000Z,8.63
2022-09-24T04:47:16.000Z,8.61
2022-09-24T04:48:16.000Z,8.67
2022-09-24T04:49:16.000Z,8.75
2022-09-24T04:50:17.000Z,8.68
2022-09-24T04:51:17.000Z,8.69
2022-09-24T04:52:17.000Z,8.66
2022-09-24T04:53:17.000Z,8.72
2022-09-24T04:54:16.000Z,8.69
2022-09-24T04:55:19.000Z,8.72
2022-09-24T04:56:16.000Z,8.67
2022-09-24T04:57:16.000Z,8.63
2022-09-24T04:58:17.000Z,8.60
2022-09-24T04:59:16.000Z,8.59
2022-09-24T05:00:18.000Z,8.61
2022-09-24T05:01:17.000Z,8.63
2022-09-24T05:02:17.000Z,8.65
2022-09-24T05:03:17.000Z,8.58
2022-09-24T05:04:16.000Z,8.65
2022-09-24T05:05:16.000Z,8.62
2022-09-24T05:06:17.000Z,8.62
2022-09-24T05:07:16.000Z,8.63
2022-09-24T05:08:16.000Z,8.59
2022-09-24T05:09:16.000Z,8.54
2022-09-24T05:10:16.000Z,8.62
2022-09-24T05:11:18.000Z,8.56
2022-09-24T05:12:18.000Z,8.54
2022-09-24T05:13:16.000Z,8.54
2022-09-24T05:14:16.000Z,8.63
2022-09-24T05:15:20.000Z,8.60
2022-09-24T05:16:16.000Z,8.63
2022-09-24T05:17:17.000Z,8.61
2022-09-24T05:18:16.000Z,8.63
2022-09-24T05:19:17.000Z,8.65
2022-09-24T05:20:16.000Z,8.58
2022-09-24T05:21:16.000Z,8.63
2022-09-24T05:22:16.000Z,8.64
2022-09-24T05:23:16.000Z,8.66
2022-09-24T05:24:16.000Z,8.63
2022-09-24T05:25:19.000Z,8.62
2022-09-24T05:26:21.000Z,8.64
2022-09-24T05:27:19.000Z,8.65
2022-09-24T05:28:16.000Z,8.65
2022-09-24T05:29:17.000Z,8.67
2022-09-24T05:30:18.000Z,8.67
2022-09-24T05:31:16.000Z,8.67
2022-09-24T05:32:18.000Z,8.68
2022-09-24T05:33:16.000Z,8.66
2022-09-24T05:34:16.000Z,8.61
2022-09-24T05:35:21.000Z,8.67
2022-09-24T05:36:17.000Z,8.63
2022-09-24T05:37:17.000Z,8.63
2022-09-24T05:38:16.000Z,8.64
2022-09-24T05:39:16.000Z,8.59
2022-09-24T05:40:21.000Z,8.70
2022-09-24T05:41:17.000Z,8.69
2022-09-24T05:42:16.000Z,8.65
2022-09-24T05:43:20.000Z,8.70
2022-09-24T05:44:20.000Z,8.70
2022-09-24T05:45:16.000Z,8.72
2022-09-24T05:46:16.000Z,8.68
2022-09-24T05:47:17.000Z,8.68
2022-09-24T05:48:16.000Z,8.68
2022-09-24T05:49:17.000Z,8.69
2022-09-24T05:50:16.000Z,8.73
2022-09-24T05:51:17.000Z,8.69
2022-09-24T05:52:16.000Z,8.70
2022-09-24T05:53:17.000Z,8.73
2022-09-24T05:54:17.000Z,8.70
2022-09-24T05:55:16.000Z,8.67
2022-09-24T05:56:16.000Z,8.68
2022-09-24T05:57:18.000Z,8.76
2022-09-24T05:58:17.000Z,8.77
2022-09-24T05:59:16.000Z,8.69
2022-09-24T06:00:17.000Z,8.77
2022-09-24T06:01:17.000Z,8.77
2022-09-24T06:02:16.000Z,8.71
2022-09-24T06:03:17.000Z,8.70
2022-09-24T06:04:17.000Z,8.70
2022-09-24T06:05:16.000Z,8.71
2022-09-24T06:06:16.000Z,8.71
2022-09-24T06:07:16.000Z,8.70
2022-09-24T06:08:18.000Z,8.67
2022-09-24T06:09:17.000Z,8.75
2022-09-24T06:10:17.000Z,8.72
2022-09-24T06:11:17.000Z,8.73
2022-09-24T06:12:16.000Z,8.73
2022-09-24T06:13:18.000Z,8.69
2022-09-24T06:14:17.000Z,8.76
2022-09-24T06:15:18.000Z,8.69
2022-09-24T06:16:17.000Z,8.68
2022-09-24T06:17:16.000Z,8.70
2022-09-24T06:18:16.000Z,8.70
2022-09-24T06:19:16.000Z,8.71
2022-09-24T06:20:16.000Z,8.73
2022-09-24T06:21:16.000Z,8.76
2022-09-24T06:22:16.000Z,8.77
2022-09-24T06:23:16.000Z,8.79
2022-09-24T06:24:16.000Z,8.79
2022-09-24T06:25:16.000Z,8.80
2022-09-24T06:26:17.000Z,8.78
2022-09-24T06:27:16.000Z,8.78
2022-09-24T06:28:16.000Z,8.76
2022-09-24T06:29:16.000Z,8.78
2022-09-24T06:30:16.000Z,8.76
2022-09-24T06:31:16.000Z,8.79
2022-09-24T06:32:17.000Z,8.76
2022-09-24T06:33:18.000Z,8.80
2022-09-24T06:34:16.000Z,8.86
2022-09-24T06:35:16.000Z,8.85
2022-09-24T06:36:16.000Z,8.84
2022-09-24T06:37:16.000Z,8.80
2022-09-24T06:38:17.000Z,8.83
2022-09-24T06:39:17.000Z,8.84
2022-09-24T06:40:16.000Z,8.89
2022-09-24T06:41:16.000Z,8.85
2022-09-24T06:42:17.000Z,8.85
2022-09-24T06:43:17.000Z,8.88
2022-09-24T06:44:17.000Z,8.84
2022-09-24T06:45:20.000Z,8.86
2022-09-24T06:46:16.000Z,8.81
2022-09-24T06:47:16.000Z,8.87
2022-09-24T06:48:16.000Z,8.83
2022-09-24T06:49:16.000Z,8.87
2022-09-24T06:50:16.000Z,8.87
2022-09-24T06:51:16.000Z,8.90
2022-09-24T06:52:16.000Z,8.86
2022-09-24T06:53:17.000Z,8.89
2022-09-24T06:54:16.000Z,8.90
2022-09-24T06:55:17.000Z,8.92
2022-09-24T06:56:16.000Z,8.89
2022-09-24T06:57:16.000Z,8.88
2022-09-24T06:58:22.000Z,8.93
2022-09-24T06:59:17.000Z,8.96
2022-09-24T07:00:16.000Z,8.98
2022-09-24T07:01:16.000Z,8.96
2022-09-24T07:02:16.000Z,8.99
2022-09-24T07:03:17.000Z,8.99
2022-09-24T07:04:16.000Z,8.98
2022-09-24T07:05:16.000Z,9.02
2022-09-24T07:06:16.000Z,8.98
2022-09-24T07:07:21.000Z,8.99
2022-09-24T07:08:17.000Z,9.02
2022-09-24T07:09:16.000Z,9.02
2022-09-24T07:10:16.000Z,9.03
2022-09-24T07:11:16.000Z,9.04
2022-09-24T07:12:16.000Z,9.06
2022-09-24T07:13:17.000Z,9.06
2022-09-24T07:14:16.000Z,9.05
2022-09-24T07:15:17.000Z,9.06
2022-09-24T07:16:16.000Z,9.04
2022-09-24T07:17:16.000Z,9.07
2022-09-24T07:18:17.000Z,9.03
2022-09-24T07:19:17.000Z,9.08
2022-09-24T07:20:17.000Z,9.06
2022-09-24T07:21:17.000Z,9.05
2022-09-24T07:22:17.000Z,9.07
2022-09-24T07:23:17.000Z,9.08
2022-09-24T07:24:17.000Z,9.08
2022-09-24T07:25:17.000Z,9.10
2022-09-24T07:26:17.000Z,9.13
2022-09-24T07:27:19.000Z,9.15
2022-09-24T07:28:20.000Z,9.16
2022-09-24T07:29:17.000Z,9.13
2022-09-24T07:30:17.000Z,9.12
2022-09-24T07:31:17.000Z,9.15
2022-09-24T07:32:17.000Z,9.19
2022-09-24T07:33:17.000Z,9.19
2022-09-24T07:34:17.000Z,9.21
2022-09-24T07:35:17.000Z,9.20
2022-09-24T07:36:17.000Z,9.22
2022-09-24T07:37:17.000Z,9.23
2022-09-24T07:38:17.000Z,9.22
2022-09-24T07:39:18.000Z,9.25
2022-09-24T07:40:18.000Z,9.23
2022-09-24T07:41:18.000Z,9.22
2022-09-24T07:42:17.000Z,9.26
2022-09-24T07:43:19.000Z,9.22
2022-09-24T07:44:19.000Z,9.29
2022-09-24T07:45:17.000Z,9.27
2022-09-24T07:46:18.000Z,9.28
2022-09-24T07:47:17.000Z,9.30
2022-09-24T07:48:17.000Z,9.26
2022-09-24T07:49:17.000Z,9.27
2022-09-24T07:50:17.000Z,9.26
2022-09-24T07:51:16.000Z,9.30
2022-09-24T07:52:17.000Z,9.29
2022-09-24T07:53:17.000Z,9.31
2022-09-24T07:54:17.000Z,9.33
2022-09-24T07:55:17.000Z,9.32
2022-09-24T07:56:17.000Z,9.31
2022-09-24T07:57:16.000Z,9.32
2022-09-24T07:58:17.000Z,9.34
2022-09-24T07:59:18.000Z,9.34
2022-09-24T08:00:18.000Z,9.37
2022-09-24T08:01:17.000Z,9.42
2022-09-24T08:02:17.000Z,9.42
2022-09-24T08:03:16.000Z,9.41
2022-09-24T08:04:16.000Z,9.45
2022-09-24T08:05:16.000Z,9.43
2022-09-24T08:06:18.000Z,9.45
2022-09-24T08:07:17.000Z,9.38
2022-09-24T08:08:19.000Z,9.39
2022-09-24T08:09:16.000Z,9.37
2022-09-24T08:10:17.000Z,9.33
2022-09-24T08:11:17.000Z,9.36
2022-09-24T08:12:16.000Z,9.37
2022-09-24T08:13:17.000Z,9.43
2022-09-24T08:14:16.000Z,9.44
2022-09-24T08:15:17.000Z,9.41
2022-09-24T08:16:19.000Z,9.41
2022-09-24T08:17:17.000Z,9.41
2022-09-24T08:18:19.000Z,9.46
2022-09-24T08:19:16.000Z,9.43
2022-09-24T08:20:17.000Z,9.45
2022-09-24T08:21:16.000Z,9.49
2022-09-24T08:22:17.000Z,9.52
2022-09-24T08:23:17.000Z,9.49
2022-09-24T08:24:16.000Z,9.50
2022-09-24T08:25:16.000Z,9.52
2022-09-24T08:26:16.000Z,9.49
2022-09-24T08:27:18.000Z,9.50
2022-09-24T08:28:18.000Z,9.52
2022-09-24T08:29:16.000Z,9.52
2022-09-24T08:30:16.000Z,9.51
2022-09-24T08:31:17.000Z,9.52
2022-09-24T08:32:16.000Z,9.55
2022-09-24T08:33:17.000Z,9.53
2022-09-24T08:34:16.000Z,9.52
2022-09-24T08:35:17.000Z,9.53
2022-09-24T08:36:17.000Z,9.51
2022-09-24T08:37:16.000Z,9.52
2022-09-24T08:38:19.000Z,9.54
2022-09-24T08:39:16.000Z,9.52
2022-09-24T08:40:24.000Z,9.58
2022-09-24T08:41:37.000Z,9.55
2022-09-24T08:42:26.000Z,9.57
2022-09-24T08:43:26.000Z,9.56
2022-09-24T08:44:38.000Z,9.55
2022-09-24T08:45:21.000Z,9.58
2022-09-24T08:46:27.000Z,9.59
2022-09-24T08:47:37.000Z,9.58
2022-09-24T08:48:22.000Z,9.57
2022-09-24T08:49:22.000Z,9.60
2022-09-24T08:50:20.000Z,9.62
2022-09-24T08:51:20.000Z,9.64
2022-09-24T08:52:37.000Z,9.66
2022-09-24T08:53:25.000Z,9.67
2022-09-24T08:54:18.000Z,9.65
2022-09-24T08:55:35.000Z,9.66
2022-09-24T08:56:21.000Z,9.62
2022-09-24T08:57:19.000Z,9.66
2022-09-24T08:58:40.000Z,9.68
2022-09-24T08:59:32.000Z,9.65
2022-09-24T09:00:18.000Z,9.64
2022-09-24T09:01:28.000Z,9.63
2022-09-24T09:02:38.000Z,9.65
2022-09-24T09:03:27.000Z,9.65
2022-09-24T09:04:27.000Z,9.68
2022-09-24T09:05:25.000Z,9.66
2022-09-24T09:06:27.000Z,9.70
2022-09-24T09:07:21.000Z,9.71
2022-09-24T09:08:37.000Z,9.70
2022-09-24T09:09:28.000Z,9.71
2022-09-24T09:10:24.000Z,9.69
2022-09-24T09:11:21.000Z,9.76
2022-09-24T09:12:24.000Z,9.72
2022-09-24T09:13:26.000Z,9.75
2022-09-24T09:14:37.000Z,9.75
2022-09-24T09:15:34.000Z,9.73
2022-09-24T09:16:26.000Z,9.76
2022-09-24T09:17:27.000Z,9.78
2022-09-24T09:18:24.000Z,9.74
2022-09-24T09:19:19.000Z,9.72
2022-09-24T09:20:22.000Z,9.73
2022-09-24T09:21:29.000Z,9.74
2022-09-24T09:22:21.000Z,9.72
2022-09-24T09:23:20.000Z,9.68
2022-09-24T09:24:34.000Z,9.72
2022-09-24T09:25:33.000Z,9.77
2022-09-24T09:26:18.000Z,9.73
2022-09-24T09:27:19.000Z,9.76
2022-09-24T09:28:18.000Z,9.76
2022-09-24T09:29:17.000Z,9.78
2022-09-24T09:30:18.000Z,9.81
2022-09-24T09:31:39.000Z,9.85
2022-09-24T09:32:40.000Z,9.86
2022-09-24T09:33:33.000Z,9.91
2022-09-24T09:34:40.000Z,9.92
2022-09-24T09:35:41.000Z,9.91
2022-09-24T09:36:34.000Z,9.93
2022-09-24T09:37:39.000Z,9.92
2022-09-24T09:38:30.000Z,9.94
2022-09-24T09:39:34.000Z,9.92
2022-09-24T09:40:37.000Z,9.97
2022-09-24T09:41:30.000Z,9.98
2022-09-24T09:42:27.000Z,9.99
2022-09-24T09:43:18.000Z,10.02
2022-09-24T09:44:22.000Z,10.02
2022-09-24T09:45:37.000Z,9.97
2022-09-24T09:46:26.000Z,10.06
2022-09-24T09:47:53.000Z,10.08
2022-09-24T09:48:22.000Z,10.12
2022-09-24T09:49:17.000Z,10.16
2022-09-24T09:50:29.000Z,10.15
2022-09-24T09:51:20.000Z,10.18
2022-09-24T09:52:24.000Z,10.15
2022-09-24T09:53:29.000Z,10.12
2022-09-24T09:54:17.000Z,10.14
2022-09-24T09:55:22.000Z,10.13
2022-09-24T09:56:23.000Z,10.11
2022-09-24T09:57:33.000Z,10.20
2022-09-24T09:58:22.000Z,10.17
2022-09-24T09:59:20.000Z,10.18
2022-09-24T10:00:31.000Z,10.18
2022-09-24T10:01:17.000Z,10.20
2022-09-24T10:02:24.000Z,10.23
2022-09-24T10:03:27.000Z,10.26
2022-09-24T10:04:27.000Z,10.23
2022-09-24T10:05:20.000Z,10.25
2022-09-24T10:06:27.000Z,10.27
2022-09-24T10:07:17.000Z,10.30
2022-09-24T10:08:21.000Z,10.17
2022-09-24T10:09:18.000Z,10.14
2022-09-24T10:10:22.000Z,10.23
2022-09-24T10:11:18.000Z,10.25
2022-09-24T10:12:19.000Z,10.26
2022-09-24T10:13:17.000Z,10.36
2022-09-24T10:14:19.000Z,10.36
2022-09-24T10:15:19.000Z,10.33
2022-09-24T10:16:17.000Z,10.28
2022-09-24T10:17:18.000Z,10.33
2022-09-24T10:18:34.000Z,10.35
2022-09-24T10:19:26.000Z,10.33
2022-09-24T10:20:31.000Z,10.34
2022-09-24T10:21:27.000Z,10.36
2022-09-24T10:22:24.000Z,10.35
2022-09-24T10:23:21.000Z,10.34
2022-09-24T10:24:25.000Z,10.30
2022-09-24T10:25:21.000Z,10.27
2022-09-24T10:26:17.000Z,10.22
2022-09-24T10:27:28.000Z,10.27
2022-09-24T10:28:22.000Z,10.30
2022-09-24T10:29:26.000Z,10.33
2022-09-24T10:30:22.000Z,10.39
2022-09-24T10:31:22.000Z,10.37
2022-09-24T10:32:20.000Z,10.35
2022-09-24T10:33:18.000Z,10.32
2022-09-24T10:34:22.000Z,10.35
2022-09-24T10:35:25.000Z,10.35
2022-09-24T10:36:33.000Z,10.31
2022-09-24T10:37:17.000Z,10.35
2022-09-24T10:38:20.000Z,10.35
2022-09-24T10:39:19.000Z,10.35
2022-09-24T10:40:22.000Z,10.36
2022-09-24T10:41:35.000Z,10.37
2022-09-24T10:42:23.000Z,10.37
2022-09-24T10:43:19.000Z,10.34
2022-09-24T10:44:19.000Z,10.43
2022-09-24T10:45:17.000Z,10.38
2022-09-24T10:46:40.000Z,10.37
2022-09-24T10:47:37.000Z,10.39
2022-09-24T10:48:32.000Z,10.42
2022-09-24T10:49:37.000Z,10.36
2022-09-24T10:50:25.000Z,10.38
2022-09-24T10:51:27.000Z,10.39
2022-09-24T10:52:37.000Z,10.37
2022-09-24T10:53:39.000Z,10.44
2022-09-24T10:54:32.000Z,10.42
2022-09-24T10:55:26.000Z,10.47
2022-09-24T10:56:29.000Z,10.47
2022-09-24T10:57:41.000Z,10.53
2022-09-24T10:58:28.000Z,10.57
2022-09-24T10:59:30.000Z,10.57
2022-09-24T11:00:20.000Z,10.53
2022-09-24T11:01:40.000Z,10.51
2022-09-24T11:02:27.000Z,10.57
2022-09-24T11:03:37.000Z,10.61
2022-09-24T11:04:26.000Z,10.56
2022-09-24T11:05:21.000Z,10.59
2022-09-24T11:06:27.000Z,10.62
2022-09-24T11:07:36.000Z,10.64
2022-09-24T11:08:28.000Z,10.67
2022-09-24T11:09:29.000Z,10.66
2022-09-24T11:10:29.000Z,10.62
2022-09-24T11:11:27.000Z,10.65
2022-09-24T11:12:32.000Z,10.66
2022-09-24T11:13:35.000Z,10.68
2022-09-24T11:14:38.000Z,10.73
2022-09-24T11:15:31.000Z,10.69
2022-09-24T11:16:31.000Z,10.76
2022-09-24T11:17:36.000Z,10.76
2022-09-24T11:18:37.000Z,10.77
2022-09-24T11:19:37.000Z,10.79
2022-09-24T11:20:27.000Z,10.75
2022-09-24T11:21:39.000Z,10.77
2022-09-24T11:22:27.000Z,10.76
2022-09-24T11:23:32.000Z,10.77
2022-09-24T11:24:27.000Z,10.79
2022-09-24T11:25:30.000Z,10.73
2022-09-24T11:26:32.000Z,10.79
2022-09-24T11:27:27.000Z,10.73
2022-09-24T11:28:27.000Z,10.76
2022-09-24T11:29:27.000Z,10.75
2022-09-24T11:30:26.000Z,10.76
2022-09-24T11:31:37.000Z,10.78
2022-09-24T11:32:26.000Z,10.84
2022-09-24T11:33:47.000Z,10.79
2022-09-24T11:34:44.000Z,10.74
2022-09-24T11:35:39.000Z,10.83
2022-09-24T11:36:31.000Z,10.82
2022-09-24T11:37:42.000Z,10.76
2022-09-24T11:38:42.000Z,10.74
2022-09-24T11:39:45.000Z,10.74
2022-09-24T11:40:39.000Z,10.76
2022-09-24T11:41:29.000Z,10.76
2022-09-24T11:42:26.000Z,10.77
2022-09-24T11:43:37.000Z,10.76
2022-09-24T11:44:27.000Z,10.78
2022-09-24T11:45:27.000Z,10.81
2022-09-24T11:46:37.000Z,10.81
2022-09-24T11:47:31.000Z,10.83
2022-09-24T11:48:32.000Z,10.81
2022-09-24T11:49:37.000Z,10.82
2022-09-24T11:50:31.000Z,10.81
2022-09-24T11:51:43.000Z,10.86
2022-09-24T11:52:30.000Z,10.86
2022-09-24T11:53:32.000Z,10.86
2022-09-24T11:54:25.000Z,10.80
2022-09-24T11:55:37.000Z,10.85
2022-09-24T11:56:26.000Z,10.79
2022-09-24T11:57:24.000Z,10.87
2022-09-24T11:58:27.000Z,10.87
2022-09-24T11:59:37.000Z,10.88
2022-09-24T12:00:41.000Z,10.89
2022-09-24T12:01:24.000Z,10.88
2022-09-24T12:02:27.000Z,10.96
2022-09-24T12:03:23.000Z,10.95
2022-09-24T12:04:38.000Z,10.99
2022-09-24T12:05:28.000Z,11.08
2022-09-24T12:06:26.000Z,11.10
2022-09-24T12:07:25.000Z,11.14
2022-09-24T12:08:24.000Z,11.04
2022-09-24T12:09:28.000Z,10.99
2022-09-24T12:10:27.000Z,10.92
2022-09-24T12:11:27.000Z,10.91
2022-09-24T12:12:25.000Z,10.95
2022-09-24T12:13:27.000Z,10.99
2022-09-24T12:14:23.000Z,10.97
2022-09-24T12:15:26.000Z,10.95
2022-09-24T12:16:31.000Z,10.94
2022-09-24T12:17:43.000Z,10.98
2022-09-24T12:18:44.000Z,10.86
2022-09-24T12:19:29.000Z,10.92
2022-09-24T12:20:27.000Z,10.96
2022-09-24T12:21:24.000Z,10.96
2022-09-24T12:22:18.000Z,11.00
2022-09-24T12:23:23.000Z,11.02
2022-09-24T12:24:27.000Z,11.06
2022-09-24T12:25:20.000Z,11.09
2022-09-24T12:26:20.000Z,11.09
2022-09-24T12:27:26.000Z,11.07
2022-09-24T12:28:53.000Z,11.06
2022-09-24T12:29:32.000Z,11.06
2022-09-24T12:30:33.000Z,11.08
2022-09-24T12:31:35.000Z,11.10
2022-09-24T12:32:32.000Z,11.07
2022-09-24T12:33:27.000Z,11.14
2022-09-24T12:34:27.000Z,11.12
2022-09-24T12:35:34.000Z,11.08
2022-09-24T12:36:37.000Z,11.08
2022-09-24T12:37:22.000Z,11.18
2022-09-24T12:38:41.000Z,11.13
2022-09-24T12:39:24.000Z,11.06
2022-09-24T12:40:37.000Z,11.05
2022-09-24T12:41:29.000Z,11.12
2022-09-24T12:42:21.000Z,11.07
2022-09-24T12:43:27.000Z,11.08
2022-09-24T12:44:32.000Z,11.11
2022-09-24T12:45:22.000Z,11.15
2022-09-24T12:46:24.000Z,11.22
2022-09-24T12:47:23.000Z,11.34
2022-09-24T12:48:21.000Z,11.26
2022-09-24T12:49:40.000Z,11.24
2022-09-24T12:50:22.000Z,11.21
2022-09-24T12:51:22.000Z,11.08
2022-09-24T12:52:23.000Z,11.02
2022-09-24T12:53:22.000Z,11.00
2022-09-24T12:54:29.000Z,11.08
2022-09-24T12:55:33.000Z,11.09
2022-09-24T12:56:24.000Z,11.16
2022-09-24T12:57:23.000Z,11.10
2022-09-24T12:58:28.000Z,11.11
2022-09-24T12:59:26.000Z,11.08
2022-09-24T13:00:28.000Z,11.12
2022-09-24T13:01:26.000Z,11.09
2022-09-24T13:02:27.000Z,11.11
2022-09-24T13:03:30.000Z,11.14
2022-09-24T13:04:32.000Z,11.15
2022-09-24T13:05:27.000Z,11.18
2022-09-24T13:06:36.000Z,11.18
2022-09-24T13:07:40.000Z,11.18
2022-09-24T13:08:38.000Z,11.14
2022-09-24T13:09:32.000Z,11.12
2022-09-24T13:10:30.000Z,11.14
2022-09-24T13:11:27.000Z,11.12